sensor_id;sensor_type;location;lat;lon;timestamp;P1;durP1;ratioP1;P2;durP2;ratioP2
13331;SDS011;6735;51.456;12.626;2023-04-19T00:00:17;7.67;;;6.97;;
13331;SDS011;6735;51.456;12.626;2023-04-19T00:02:43;7.73;;;6.63;;
13331;SDS011;6735;51.456;12.626;2023-04-19T00:05:09;8.80;;;6.70;;
13331;SDS011;6735;51.456;12.626;2023-04-19T00:07:37;9.17;;;6.87;;
13331;SDS011;6735;51.456;12.626;2023-04-19T00:10:02;8.03;;;7.07;;
13331;SDS011;6735;51.456;12.626;2023-04-19T00:12:28;11.50;;;7.50;;
13331;SDS011;6735;51.456;12.626;2023-04-19T00:14:54;8.90;;;7.07;;
13331;SDS011;6735;51.456;12.626;2023-04-19T00:17:19;8.30;;;7.27;;
13331;SDS011;6735;51.456;12.626;2023-04-19T00:19:45;10.73;;;7.87;;
13331;SDS011;6735;51.456;12.626;2023-04-19T00:22:10;8.53;;;7.60;;
13331;SDS011;6735;51.456;12.626;2023-04-19T00:24:36;9.37;;;7.13;;
13331;SDS011;6735;51.456;12.626;2023-04-19T00:27:01;8.97;;;7.87;;
13331;SDS011;6735;51.456;12.626;2023-04-19T00:29:27;8.90;;;8.00;;
13331;SDS011;6735;51.456;12.626;2023-04-19T00:31:53;9.00;;;8.20;;
13331;SDS011;6735;51.456;12.626;2023-04-19T00:34:18;9.47;;;8.47;;
13331;SDS011;6735;51.456;12.626;2023-04-19T00:36:44;9.50;;;8.50;;
13331;SDS011;6735;51.456;12.626;2023-04-19T00:39:09;12.33;;;8.47;;
13331;SDS011;6735;51.456;12.626;2023-04-19T00:41:35;10.30;;;8.77;;
13331;SDS011;6735;51.456;12.626;2023-04-19T00:44:00;10.93;;;8.73;;
13331;SDS011;6735;51.456;12.626;2023-04-19T00:46:26;9.63;;;8.63;;
13331;SDS011;6735;51.456;12.626;2023-04-19T00:48:51;11.43;;;10.23;;
13331;SDS011;6735;51.456;12.626;2023-04-19T00:51:17;11.67;;;9.20;;
13331;SDS011;6735;51.456;12.626;2023-04-19T00:53:44;11.87;;;9.77;;
13331;SDS011;6735;51.456;12.626;2023-04-19T00:56:10;10.53;;;9.17;;
13331;SDS011;6735;51.456;12.626;2023-04-19T00:58:37;12.27;;;9.83;;
13331;SDS011;6735;51.456;12.626;2023-04-19T01:01:03;10.03;;;9.03;;
13331;SDS011;6735;51.456;12.626;2023-04-19T01:03:28;10.83;;;8.90;;
13331;SDS011;6735;51.456;12.626;2023-04-19T01:05:54;10.60;;;9.53;;
13331;SDS011;6735;51.456;12.626;2023-04-19T01:08:21;9.70;;;8.80;;
13331;SDS011;6735;51.456;12.626;2023-04-19T01:10:46;10.37;;;9.27;;
13331;SDS011;6735;51.456;12.626;2023-04-19T01:13:12;9.97;;;8.93;;
13331;SDS011;6735;51.456;12.626;2023-04-19T01:15:37;10.10;;;9.13;;
13331;SDS011;6735;51.456;12.626;2023-04-19T01:18:03;10.60;;;9.50;;
13331;SDS011;6735;51.456;12.626;2023-04-19T01:20:28;10.87;;;9.77;;
13331;SDS011;6735;51.456;12.626;2023-04-19T01:22:54;11.00;;;10.00;;
13331;SDS011;6735;51.456;12.626;2023-04-19T01:25:19;12.57;;;10.43;;
13331;SDS011;6735;51.456;12.626;2023-04-19T01:27:45;11.70;;;10.27;;
13331;SDS011;6735;51.456;12.626;2023-04-19T01:30:11;13.67;;;10.43;;
13331;SDS011;6735;51.456;12.626;2023-04-19T01:32:36;12.90;;;10.67;;
13331;SDS011;6735;51.456;12.626;2023-04-19T01:35:02;12.33;;;10.27;;
13331;SDS011;6735;51.456;12.626;2023-04-19T01:37:28;11.90;;;10.37;;
13331;SDS011;6735;51.456;12.626;2023-04-19T01:39:53;13.03;;;10.47;;
13331;SDS011;6735;51.456;12.626;2023-04-19T01:42:19;13.23;;;10.40;;
13331;SDS011;6735;51.456;12.626;2023-04-19T01:44:44;11.17;;;9.80;;
13331;SDS011;6735;51.456;12.626;2023-04-19T01:47:10;11.63;;;10.43;;
13331;SDS011;6735;51.456;12.626;2023-04-19T01:49:35;11.40;;;10.27;;
13331;SDS011;6735;51.456;12.626;2023-04-19T01:52:01;12.87;;;10.90;;
13331;SDS011;6735;51.456;12.626;2023-04-19T01:54:26;12.83;;;10.50;;
13331;SDS011;6735;51.456;12.626;2023-04-19T01:56:52;11.93;;;10.53;;
13331;SDS011;6735;51.456;12.626;2023-04-19T01:59:17;13.83;;;11.33;;
13331;SDS011;6735;51.456;12.626;2023-04-19T02:01:43;13.50;;;11.63;;
13331;SDS011;6735;51.456;12.626;2023-04-19T02:04:08;14.73;;;11.13;;
13331;SDS011;6735;51.456;12.626;2023-04-19T02:06:34;15.70;;;11.73;;
13331;SDS011;6735;51.456;12.626;2023-04-19T02:08:59;16.23;;;12.13;;
13331;SDS011;6735;51.456;12.626;2023-04-19T02:11:25;13.00;;;11.00;;
13331;SDS011;6735;51.456;12.626;2023-04-19T02:13:50;14.67;;;12.33;;
13331;SDS011;6735;51.456;12.626;2023-04-19T02:16:16;15.90;;;12.30;;
13331;SDS011;6735;51.456;12.626;2023-04-19T02:18:41;14.00;;;12.17;;
13331;SDS011;6735;51.456;12.626;2023-04-19T02:21:08;14.33;;;11.83;;
13331;SDS011;6735;51.456;12.626;2023-04-19T02:23:34;14.30;;;11.83;;
13331;SDS011;6735;51.456;12.626;2023-04-19T02:26:00;14.70;;;12.07;;
13331;SDS011;6735;51.456;12.626;2023-04-19T02:28:29;14.90;;;12.23;;
13331;SDS011;6735;51.456;12.626;2023-04-19T02:30:55;13.30;;;11.57;;
13331;SDS011;6735;51.456;12.626;2023-04-19T02:33:21;13.90;;;11.10;;
13331;SDS011;6735;51.456;12.626;2023-04-19T02:35:47;13.57;;;11.17;;
13331;SDS011;6735;51.456;12.626;2023-04-19T02:38:12;13.20;;;10.27;;
13331;SDS011;6735;51.456;12.626;2023-04-19T02:40:38;13.10;;;10.60;;
13331;SDS011;6735;51.456;12.626;2023-04-19T02:43:03;14.37;;;11.13;;
13331;SDS011;6735;51.456;12.626;2023-04-19T02:45:29;12.13;;;10.63;;
13331;SDS011;6735;51.456;12.626;2023-04-19T02:47:54;12.03;;;10.17;;
13331;SDS011;6735;51.456;12.626;2023-04-19T02:50:20;11.67;;;10.10;;
13331;SDS011;6735;51.456;12.626;2023-04-19T02:52:45;12.90;;;9.97;;
13331;SDS011;6735;51.456;12.626;2023-04-19T02:55:11;11.27;;;10.07;;
13331;SDS011;6735;51.456;12.626;2023-04-19T02:57:36;12.50;;;9.67;;
13331;SDS011;6735;51.456;12.626;2023-04-19T03:00:02;14.63;;;10.03;;
13331;SDS011;6735;51.456;12.626;2023-04-19T03:02:29;11.57;;;9.10;;
13331;SDS011;6735;51.456;12.626;2023-04-19T03:04:55;14.23;;;9.13;;
13331;SDS011;6735;51.456;12.626;2023-04-19T03:07:20;12.07;;;8.70;;
13331;SDS011;6735;51.456;12.626;2023-04-19T03:09:47;11.20;;;8.97;;
13331;SDS011;6735;51.456;12.626;2023-04-19T03:12:12;11.43;;;9.00;;
13331;SDS011;6735;51.456;12.626;2023-04-19T03:14:38;9.07;;;8.07;;
13331;SDS011;6735;51.456;12.626;2023-04-19T03:17:03;10.97;;;8.13;;
13331;SDS011;6735;51.456;12.626;2023-04-19T03:19:29;10.83;;;8.00;;
13331;SDS011;6735;51.456;12.626;2023-04-19T03:21:54;10.93;;;8.13;;
13331;SDS011;6735;51.456;12.626;2023-04-19T03:24:25;9.50;;;7.37;;
13331;SDS011;6735;51.456;12.626;2023-04-19T03:26:53;8.07;;;7.10;;
13331;SDS011;6735;51.456;12.626;2023-04-19T03:29:19;8.87;;;7.57;;
13331;SDS011;6735;51.456;12.626;2023-04-19T03:31:44;8.60;;;7.20;;
13331;SDS011;6735;51.456;12.626;2023-04-19T03:34:10;9.00;;;6.93;;
13331;SDS011;6735;51.456;12.626;2023-04-19T03:36:35;9.77;;;7.00;;
13331;SDS011;6735;51.456;12.626;2023-04-19T03:39:02;7.27;;;6.33;;
13331;SDS011;6735;51.456;12.626;2023-04-19T03:41:28;7.57;;;6.10;;
13331;SDS011;6735;51.456;12.626;2023-04-19T03:43:53;7.23;;;6.30;;
13331;SDS011;6735;51.456;12.626;2023-04-19T03:46:19;7.87;;;6.60;;
13331;SDS011;6735;51.456;12.626;2023-04-19T03:48:45;8.20;;;6.80;;
13331;SDS011;6735;51.456;12.626;2023-04-19T03:51:11;7.33;;;6.53;;
13331;SDS011;6735;51.456;12.626;2023-04-19T03:53:37;8.03;;;6.03;;
13331;SDS011;6735;51.456;12.626;2023-04-19T03:56:03;7.20;;;6.43;;
13331;SDS011;6735;51.456;12.626;2023-04-19T03:58:28;7.77;;;6.20;;
13331;SDS011;6735;51.456;12.626;2023-04-19T04:00:54;9.43;;;5.70;;
13331;SDS011;6735;51.456;12.626;2023-04-19T04:03:19;6.90;;;5.50;;
13331;SDS011;6735;51.456;12.626;2023-04-19T04:05:45;11.07;;;5.40;;
13331;SDS011;6735;51.456;12.626;2023-04-19T04:08:10;8.30;;;5.47;;
13331;SDS011;6735;51.456;12.626;2023-04-19T04:10:37;6.57;;;5.17;;
13331;SDS011;6735;51.456;12.626;2023-04-19T04:13:03;7.37;;;5.17;;
13331;SDS011;6735;51.456;12.626;2023-04-19T04:15:28;6.13;;;5.10;;
13331;SDS011;6735;51.456;12.626;2023-04-19T04:17:54;6.60;;;5.10;;
13331;SDS011;6735;51.456;12.626;2023-04-19T04:20:19;7.97;;;5.07;;
13331;SDS011;6735;51.456;12.626;2023-04-19T04:22:45;4.93;;;4.43;;
13331;SDS011;6735;51.456;12.626;2023-04-19T04:25:11;5.93;;;4.43;;
13331;SDS011;6735;51.456;12.626;2023-04-19T04:27:37;4.63;;;4.20;;
13331;SDS011;6735;51.456;12.626;2023-04-19T04:30:03;5.80;;;4.57;;
13331;SDS011;6735;51.456;12.626;2023-04-19T04:32:30;6.57;;;4.90;;
13331;SDS011;6735;51.456;12.626;2023-04-19T04:35:00;5.80;;;4.50;;
13331;SDS011;6735;51.456;12.626;2023-04-19T04:37:26;7.53;;;5.70;;
13331;SDS011;6735;51.456;12.626;2023-04-19T04:39:51;6.43;;;4.93;;
13331;SDS011;6735;51.456;12.626;2023-04-19T04:42:17;10.57;;;6.10;;
13331;SDS011;6735;51.456;12.626;2023-04-19T04:44:45;7.93;;;4.63;;
13331;SDS011;6735;51.456;12.626;2023-04-19T04:47:14;5.23;;;3.90;;
13331;SDS011;6735;51.456;12.626;2023-04-19T04:49:39;4.13;;;3.73;;
13331;SDS011;6735;51.456;12.626;2023-04-19T04:52:05;4.63;;;4.23;;
13331;SDS011;6735;51.456;12.626;2023-04-19T04:54:32;11.87;;;9.40;;
13331;SDS011;6735;51.456;12.626;2023-04-19T04:56:58;19.93;;;12.70;;
13331;SDS011;6735;51.456;12.626;2023-04-19T04:59:24;19.37;;;12.87;;
13331;SDS011;6735;51.456;12.626;2023-04-19T05:01:50;12.13;;;8.03;;
13331;SDS011;6735;51.456;12.626;2023-04-19T05:04:16;9.63;;;7.17;;
13331;SDS011;6735;51.456;12.626;2023-04-19T05:06:42;19.83;;;12.13;;
13331;SDS011;6735;51.456;12.626;2023-04-19T05:09:08;21.27;;;11.63;;
13331;SDS011;6735;51.456;12.626;2023-04-19T05:11:34;20.07;;;11.90;;
13331;SDS011;6735;51.456;12.626;2023-04-19T05:13:59;14.30;;;8.30;;
13331;SDS011;6735;51.456;12.626;2023-04-19T05:16:26;4.70;;;3.90;;
13331;SDS011;6735;51.456;12.626;2023-04-19T05:18:51;3.97;;;3.47;;
13331;SDS011;6735;51.456;12.626;2023-04-19T05:21:17;5.87;;;3.80;;
13331;SDS011;6735;51.456;12.626;2023-04-19T05:23:42;5.13;;;3.77;;
13331;SDS011;6735;51.456;12.626;2023-04-19T05:26:08;6.63;;;4.00;;
13331;SDS011;6735;51.456;12.626;2023-04-19T05:28:36;7.07;;;3.90;;
13331;SDS011;6735;51.456;12.626;2023-04-19T05:31:02;5.77;;;3.67;;
13331;SDS011;6735;51.456;12.626;2023-04-19T05:33:28;3.80;;;3.50;;
13331;SDS011;6735;51.456;12.626;2023-04-19T05:35:54;3.97;;;3.57;;
13331;SDS011;6735;51.456;12.626;2023-04-19T05:38:19;5.13;;;3.60;;
13331;SDS011;6735;51.456;12.626;2023-04-19T05:40:45;5.27;;;4.17;;
13331;SDS011;6735;51.456;12.626;2023-04-19T05:43:10;5.23;;;3.50;;
13331;SDS011;6735;51.456;12.626;2023-04-19T05:45:36;5.33;;;3.90;;
13331;SDS011;6735;51.456;12.626;2023-04-19T05:48:01;5.00;;;4.60;;
13331;SDS011;6735;51.456;12.626;2023-04-19T05:50:27;7.40;;;4.60;;
13331;SDS011;6735;51.456;12.626;2023-04-19T05:52:52;4.37;;;3.40;;
13331;SDS011;6735;51.456;12.626;2023-04-19T05:55:17;4.17;;;3.63;;
13331;SDS011;6735;51.456;12.626;2023-04-19T05:57:43;4.03;;;3.60;;
13331;SDS011;6735;51.456;12.626;2023-04-19T06:00:09;4.43;;;3.67;;
13331;SDS011;6735;51.456;12.626;2023-04-19T06:02:35;3.80;;;3.43;;
13331;SDS011;6735;51.456;12.626;2023-04-19T06:05:00;7.10;;;3.73;;
13331;SDS011;6735;51.456;12.626;2023-04-19T06:07:28;5.33;;;3.53;;
13331;SDS011;6735;51.456;12.626;2023-04-19T06:09:54;5.27;;;3.70;;
13331;SDS011;6735;51.456;12.626;2023-04-19T06:12:20;4.03;;;3.63;;
13331;SDS011;6735;51.456;12.626;2023-04-19T06:14:45;3.70;;;3.40;;
13331;SDS011;6735;51.456;12.626;2023-04-19T06:17:11;4.37;;;3.27;;
13331;SDS011;6735;51.456;12.626;2023-04-19T06:19:39;4.80;;;3.63;;
13331;SDS011;6735;51.456;12.626;2023-04-19T06:22:05;5.70;;;3.10;;
13331;SDS011;6735;51.456;12.626;2023-04-19T06:24:30;4.17;;;3.33;;
13331;SDS011;6735;51.456;12.626;2023-04-19T06:26:56;4.83;;;3.40;;
13331;SDS011;6735;51.456;12.626;2023-04-19T06:29:21;3.40;;;3.10;;
13331;SDS011;6735;51.456;12.626;2023-04-19T06:31:48;4.23;;;3.50;;
13331;SDS011;6735;51.456;12.626;2023-04-19T06:34:13;4.53;;;3.30;;
13331;SDS011;6735;51.456;12.626;2023-04-19T06:36:39;5.33;;;3.30;;
13331;SDS011;6735;51.456;12.626;2023-04-19T06:39:05;3.90;;;3.20;;
13331;SDS011;6735;51.456;12.626;2023-04-19T06:41:31;6.70;;;3.40;;
13331;SDS011;6735;51.456;12.626;2023-04-19T06:43:56;4.03;;;3.30;;
13331;SDS011;6735;51.456;12.626;2023-04-19T06:46:22;3.20;;;2.90;;
13331;SDS011;6735;51.456;12.626;2023-04-19T06:48:47;3.53;;;3.10;;
13331;SDS011;6735;51.456;12.626;2023-04-19T06:51:13;3.43;;;2.83;;
13331;SDS011;6735;51.456;12.626;2023-04-19T06:53:38;3.77;;;3.00;;
13331;SDS011;6735;51.456;12.626;2023-04-19T06:56:04;6.93;;;3.07;;
13331;SDS011;6735;51.456;12.626;2023-04-19T06:58:30;3.27;;;2.97;;
13331;SDS011;6735;51.456;12.626;2023-04-19T07:00:56;3.10;;;2.80;;
13331;SDS011;6735;51.456;12.626;2023-04-19T07:03:22;4.00;;;3.10;;
13331;SDS011;6735;51.456;12.626;2023-04-19T07:05:47;3.33;;;3.03;;
13331;SDS011;6735;51.456;12.626;2023-04-19T07:08:13;3.00;;;2.80;;
13331;SDS011;6735;51.456;12.626;2023-04-19T07:10:38;4.23;;;3.00;;
13331;SDS011;6735;51.456;12.626;2023-04-19T07:13:04;3.30;;;3.00;;
13331;SDS011;6735;51.456;12.626;2023-04-19T07:15:29;8.53;;;3.10;;
13331;SDS011;6735;51.456;12.626;2023-04-19T07:17:55;3.50;;;3.20;;
13331;SDS011;6735;51.456;12.626;2023-04-19T07:20:20;3.50;;;3.07;;
13331;SDS011;6735;51.456;12.626;2023-04-19T07:22:46;3.40;;;2.77;;
13331;SDS011;6735;51.456;12.626;2023-04-19T07:25:12;5.30;;;3.13;;
13331;SDS011;6735;51.456;12.626;2023-04-19T07:27:38;4.40;;;3.40;;
13331;SDS011;6735;51.456;12.626;2023-04-19T07:30:04;4.00;;;2.87;;
13331;SDS011;6735;51.456;12.626;2023-04-19T07:32:30;4.10;;;2.90;;
13331;SDS011;6735;51.456;12.626;2023-04-19T07:34:56;15.13;;;3.47;;
13331;SDS011;6735;51.456;12.626;2023-04-19T07:37:21;3.70;;;3.17;;
13331;SDS011;6735;51.456;12.626;2023-04-19T07:39:47;3.93;;;3.23;;
13331;SDS011;6735;51.456;12.626;2023-04-19T07:42:12;4.97;;;3.33;;
13331;SDS011;6735;51.456;12.626;2023-04-19T07:44:38;3.73;;;3.10;;
13331;SDS011;6735;51.456;12.626;2023-04-19T07:47:03;5.70;;;3.10;;
13331;SDS011;6735;51.456;12.626;2023-04-19T07:49:32;6.13;;;3.80;;
13331;SDS011;6735;51.456;12.626;2023-04-19T07:51:58;5.83;;;3.50;;
13331;SDS011;6735;51.456;12.626;2023-04-19T07:54:25;5.00;;;3.43;;
13331;SDS011;6735;51.456;12.626;2023-04-19T07:56:51;4.53;;;3.13;;
13331;SDS011;6735;51.456;12.626;2023-04-19T07:59:16;3.00;;;2.80;;
13331;SDS011;6735;51.456;12.626;2023-04-19T08:01:42;3.77;;;3.30;;
13331;SDS011;6735;51.456;12.626;2023-04-19T08:04:07;4.80;;;3.17;;
13331;SDS011;6735;51.456;12.626;2023-04-19T08:06:33;3.83;;;2.93;;
13331;SDS011;6735;51.456;12.626;2023-04-19T08:09:01;3.67;;;3.10;;
13331;SDS011;6735;51.456;12.626;2023-04-19T08:11:27;5.67;;;3.20;;
13331;SDS011;6735;51.456;12.626;2023-04-19T08:13:53;5.37;;;3.30;;
13331;SDS011;6735;51.456;12.626;2023-04-19T08:16:18;4.10;;;3.00;;
13331;SDS011;6735;51.456;12.626;2023-04-19T08:18:44;5.57;;;3.37;;
13331;SDS011;6735;51.456;12.626;2023-04-19T08:21:10;6.47;;;3.60;;
13331;SDS011;6735;51.456;12.626;2023-04-19T08:23:35;4.27;;;3.80;;
13331;SDS011;6735;51.456;12.626;2023-04-19T08:26:01;6.27;;;3.80;;
13331;SDS011;6735;51.456;12.626;2023-04-19T08:28:27;3.90;;;3.47;;
13331;SDS011;6735;51.456;12.626;2023-04-19T08:30:53;4.63;;;3.20;;
13331;SDS011;6735;51.456;12.626;2023-04-19T08:33:18;5.07;;;3.43;;
13331;SDS011;6735;51.456;12.626;2023-04-19T08:35:44;5.50;;;3.70;;
13331;SDS011;6735;51.456;12.626;2023-04-19T08:38:09;5.03;;;3.70;;
13331;SDS011;6735;51.456;12.626;2023-04-19T08:40:35;4.60;;;3.40;;
13331;SDS011;6735;51.456;12.626;2023-04-19T08:43:06;4.47;;;3.30;;
13331;SDS011;6735;51.456;12.626;2023-04-19T08:45:32;5.70;;;3.67;;
13331;SDS011;6735;51.456;12.626;2023-04-19T08:47:58;3.73;;;3.43;;
13331;SDS011;6735;51.456;12.626;2023-04-19T08:50:26;3.73;;;3.30;;
13331;SDS011;6735;51.456;12.626;2023-04-19T08:52:51;4.30;;;3.80;;
13331;SDS011;6735;51.456;12.626;2023-04-19T08:55:17;4.17;;;3.10;;
13331;SDS011;6735;51.456;12.626;2023-04-19T08:57:43;4.43;;;3.70;;
13331;SDS011;6735;51.456;12.626;2023-04-19T09:00:08;4.47;;;3.30;;
13331;SDS011;6735;51.456;12.626;2023-04-19T09:02:51;5.17;;;3.10;;
13331;SDS011;6735;51.456;12.626;2023-04-19T09:05:18;4.40;;;3.20;;
13331;SDS011;6735;51.456;12.626;2023-04-19T09:07:44;4.83;;;3.67;;
13331;SDS011;6735;51.456;12.626;2023-04-19T09:10:11;5.30;;;3.47;;
13331;SDS011;6735;51.456;12.626;2023-04-19T09:12:41;4.43;;;3.40;;
13331;SDS011;6735;51.456;12.626;2023-04-19T09:15:07;4.17;;;3.30;;
13331;SDS011;6735;51.456;12.626;2023-04-19T09:17:34;6.77;;;3.80;;
13331;SDS011;6735;51.456;12.626;2023-04-19T09:20:00;3.90;;;3.50;;
13331;SDS011;6735;51.456;12.626;2023-04-19T09:22:26;4.00;;;3.70;;
13331;SDS011;6735;51.456;12.626;2023-04-19T09:24:52;3.73;;;3.23;;
13331;SDS011;6735;51.456;12.626;2023-04-19T09:27:31;4.73;;;3.40;;
13331;SDS011;6735;51.456;12.626;2023-04-19T09:29:58;3.43;;;3.13;;
13331;SDS011;6735;51.456;12.626;2023-04-19T09:32:24;4.10;;;3.70;;
13331;SDS011;6735;51.456;12.626;2023-04-19T09:34:51;3.97;;;3.07;;
13331;SDS011;6735;51.456;12.626;2023-04-19T09:37:18;4.60;;;3.40;;
13331;SDS011;6735;51.456;12.626;2023-04-19T09:39:44;3.90;;;3.53;;
13331;SDS011;6735;51.456;12.626;2023-04-19T09:42:10;3.87;;;3.40;;
13331;SDS011;6735;51.456;12.626;2023-04-19T09:44:35;4.30;;;3.60;;
13331;SDS011;6735;51.456;12.626;2023-04-19T09:47:01;5.47;;;3.43;;
13331;SDS011;6735;51.456;12.626;2023-04-19T09:49:27;5.63;;;3.30;;
13331;SDS011;6735;51.456;12.626;2023-04-19T09:51:53;3.60;;;3.30;;
13331;SDS011;6735;51.456;12.626;2023-04-19T09:54:21;3.93;;;3.33;;
13331;SDS011;6735;51.456;12.626;2023-04-19T09:56:48;6.50;;;3.70;;
13331;SDS011;6735;51.456;12.626;2023-04-19T09:59:14;4.03;;;3.50;;
13331;SDS011;6735;51.456;12.626;2023-04-19T10:01:46;4.43;;;3.60;;
13331;SDS011;6735;51.456;12.626;2023-04-19T10:04:13;4.30;;;3.43;;
13331;SDS011;6735;51.456;12.626;2023-04-19T10:06:46;5.20;;;3.40;;
13331;SDS011;6735;51.456;12.626;2023-04-19T10:09:16;3.77;;;3.47;;
13331;SDS011;6735;51.456;12.626;2023-04-19T10:11:46;4.20;;;3.80;;
13331;SDS011;6735;51.456;12.626;2023-04-19T10:14:13;4.83;;;3.53;;
13331;SDS011;6735;51.456;12.626;2023-04-19T10:16:40;4.47;;;3.73;;
13331;SDS011;6735;51.456;12.626;2023-04-19T10:19:12;3.93;;;3.33;;
13331;SDS011;6735;51.456;12.626;2023-04-19T10:21:40;4.00;;;3.60;;
13331;SDS011;6735;51.456;12.626;2023-04-19T10:24:07;3.90;;;3.60;;
13331;SDS011;6735;51.456;12.626;2023-04-19T10:32:26;5.20;;;3.50;;
13331;SDS011;6735;51.456;12.626;2023-04-19T10:34:52;5.63;;;3.90;;
13331;SDS011;6735;51.456;12.626;2023-04-19T10:37:20;4.57;;;3.57;;
13331;SDS011;6735;51.456;12.626;2023-04-19T10:39:50;4.90;;;3.50;;
13331;SDS011;6735;51.456;12.626;2023-04-19T10:42:16;6.70;;;3.60;;
13331;SDS011;6735;51.456;12.626;2023-04-19T10:44:46;4.00;;;3.47;;
13331;SDS011;6735;51.456;12.626;2023-04-19T10:47:55;5.37;;;4.03;;
13331;SDS011;6735;51.456;12.626;2023-04-19T10:50:22;4.33;;;3.80;;
13331;SDS011;6735;51.456;12.626;2023-04-19T10:52:48;6.03;;;3.90;;
13331;SDS011;6735;51.456;12.626;2023-04-19T10:55:19;4.97;;;3.53;;
13331;SDS011;6735;51.456;12.626;2023-04-19T10:58:01;5.43;;;3.70;;
13331;SDS011;6735;51.456;12.626;2023-04-19T11:00:31;5.27;;;4.03;;
13331;SDS011;6735;51.456;12.626;2023-04-19T11:03:01;6.03;;;3.70;;
13331;SDS011;6735;51.456;12.626;2023-04-19T11:06:13;5.13;;;3.70;;
13331;SDS011;6735;51.456;12.626;2023-04-19T11:08:41;4.50;;;4.10;;
13331;SDS011;6735;51.456;12.626;2023-04-19T11:11:08;4.10;;;3.67;;
13331;SDS011;6735;51.456;12.626;2023-04-19T11:13:35;4.47;;;3.50;;
13331;SDS011;6735;51.456;12.626;2023-04-19T11:16:06;4.10;;;3.70;;
13331;SDS011;6735;51.456;12.626;2023-04-19T11:18:32;7.70;;;4.27;;
13331;SDS011;6735;51.456;12.626;2023-04-19T11:20:57;5.90;;;4.20;;
13331;SDS011;6735;51.456;12.626;2023-04-19T11:23:25;4.40;;;4.00;;
13331;SDS011;6735;51.456;12.626;2023-04-19T11:25:50;5.47;;;4.13;;
13331;SDS011;6735;51.456;12.626;2023-04-19T11:28:17;5.43;;;3.50;;
13331;SDS011;6735;51.456;12.626;2023-04-19T11:30:42;6.30;;;4.07;;
13331;SDS011;6735;51.456;12.626;2023-04-19T11:33:09;5.50;;;4.00;;
13331;SDS011;6735;51.456;12.626;2023-04-19T11:35:36;6.17;;;4.07;;
13331;SDS011;6735;51.456;12.626;2023-04-19T11:38:02;5.07;;;4.00;;
13331;SDS011;6735;51.456;12.626;2023-04-19T11:40:29;5.93;;;3.97;;
13331;SDS011;6735;51.456;12.626;2023-04-19T11:42:56;5.03;;;4.37;;
13331;SDS011;6735;51.456;12.626;2023-04-19T11:45:26;6.20;;;4.07;;
13331;SDS011;6735;51.456;12.626;2023-04-19T11:48:00;6.07;;;4.37;;
13331;SDS011;6735;51.456;12.626;2023-04-19T11:53:01;8.70;;;4.50;;
13331;SDS011;6735;51.456;12.626;2023-04-19T11:55:48;6.07;;;4.30;;
13331;SDS011;6735;51.456;12.626;2023-04-19T11:58:22;5.73;;;3.90;;
13331;SDS011;6735;51.456;12.626;2023-04-19T12:03:33;7.40;;;4.00;;
13331;SDS011;6735;51.456;12.626;2023-04-19T12:06:00;4.50;;;3.80;;
13331;SDS011;6735;51.456;12.626;2023-04-19T12:08:38;7.00;;;4.47;;
13331;SDS011;6735;51.456;12.626;2023-04-19T12:11:06;4.80;;;4.30;;
13331;SDS011;6735;51.456;12.626;2023-04-19T12:13:32;5.20;;;4.40;;
13331;SDS011;6735;51.456;12.626;2023-04-19T12:15:58;5.87;;;3.83;;
13331;SDS011;6735;51.456;12.626;2023-04-19T12:18:24;5.27;;;4.17;;
13331;SDS011;6735;51.456;12.626;2023-04-19T12:20:51;5.63;;;4.13;;
13331;SDS011;6735;51.456;12.626;2023-04-19T12:23:17;5.60;;;4.17;;
13331;SDS011;6735;51.456;12.626;2023-04-19T12:25:44;4.60;;;4.00;;
13331;SDS011;6735;51.456;12.626;2023-04-19T12:28:11;4.93;;;3.90;;
13331;SDS011;6735;51.456;12.626;2023-04-19T12:30:38;6.33;;;4.30;;
13331;SDS011;6735;51.456;12.626;2023-04-19T12:33:07;6.20;;;4.40;;
13331;SDS011;6735;51.456;12.626;2023-04-19T12:35:33;6.77;;;4.30;;
13331;SDS011;6735;51.456;12.626;2023-04-19T12:37:59;7.40;;;4.57;;
13331;SDS011;6735;51.456;12.626;2023-04-19T12:40:25;5.53;;;4.20;;
13331;SDS011;6735;51.456;12.626;2023-04-19T12:42:51;6.97;;;4.13;;
13331;SDS011;6735;51.456;12.626;2023-04-19T12:45:17;6.70;;;3.90;;
13331;SDS011;6735;51.456;12.626;2023-04-19T12:47:44;5.47;;;4.20;;
13331;SDS011;6735;51.456;12.626;2023-04-19T12:50:11;4.63;;;3.73;;
13331;SDS011;6735;51.456;12.626;2023-04-19T12:52:38;4.87;;;3.90;;
13331;SDS011;6735;51.456;12.626;2023-04-19T12:55:05;6.97;;;4.13;;
13331;SDS011;6735;51.456;12.626;2023-04-19T12:57:31;5.63;;;4.00;;
13331;SDS011;6735;51.456;12.626;2023-04-19T12:59:56;5.23;;;4.20;;
13331;SDS011;6735;51.456;12.626;2023-04-19T13:02:22;4.67;;;4.17;;
13331;SDS011;6735;51.456;12.626;2023-04-19T13:04:47;7.33;;;4.40;;
13331;SDS011;6735;51.456;12.626;2023-04-19T13:07:13;5.83;;;4.20;;
13331;SDS011;6735;51.456;12.626;2023-04-19T13:09:38;6.23;;;3.90;;
13331;SDS011;6735;51.456;12.626;2023-04-19T13:12:04;6.33;;;4.00;;
13331;SDS011;6735;51.456;12.626;2023-04-19T13:14:29;4.00;;;3.70;;
13331;SDS011;6735;51.456;12.626;2023-04-19T13:16:55;4.77;;;4.37;;
13331;SDS011;6735;51.456;12.626;2023-04-19T13:19:20;5.37;;;4.03;;
13331;SDS011;6735;51.456;12.626;2023-04-19T13:21:46;10.30;;;4.30;;
13331;SDS011;6735;51.456;12.626;2023-04-19T13:24:11;7.70;;;4.60;;
13331;SDS011;6735;51.456;12.626;2023-04-19T13:26:37;4.73;;;4.33;;
13331;SDS011;6735;51.456;12.626;2023-04-19T13:29:02;7.80;;;4.80;;
13331;SDS011;6735;51.456;12.626;2023-04-19T13:31:28;5.80;;;4.70;;
13331;SDS011;6735;51.456;12.626;2023-04-19T13:33:54;5.73;;;3.93;;
13331;SDS011;6735;51.456;12.626;2023-04-19T13:36:20;4.47;;;4.07;;
13331;SDS011;6735;51.456;12.626;2023-04-19T13:38:47;6.97;;;4.40;;
13331;SDS011;6735;51.456;12.626;2023-04-19T13:41:12;6.50;;;4.30;;
13331;SDS011;6735;51.456;12.626;2023-04-19T13:43:38;4.70;;;4.13;;
13331;SDS011;6735;51.456;12.626;2023-04-19T13:46:04;5.00;;;3.80;;
13331;SDS011;6735;51.456;12.626;2023-04-19T13:48:29;4.57;;;3.70;;
13331;SDS011;6735;51.456;12.626;2023-04-19T13:50:55;4.30;;;3.30;;
13331;SDS011;6735;51.456;12.626;2023-04-19T13:53:22;4.83;;;4.33;;
13331;SDS011;6735;51.456;12.626;2023-04-19T13:55:49;6.07;;;3.83;;
13331;SDS011;6735;51.456;12.626;2023-04-19T13:58:15;5.83;;;3.90;;
13331;SDS011;6735;51.456;12.626;2023-04-19T14:00:40;4.40;;;3.67;;
13331;SDS011;6735;51.456;12.626;2023-04-19T14:03:06;5.30;;;3.80;;
13331;SDS011;6735;51.456;12.626;2023-04-19T14:05:31;4.40;;;3.50;;
13331;SDS011;6735;51.456;12.626;2023-04-19T14:07:57;4.90;;;4.00;;
13331;SDS011;6735;51.456;12.626;2023-04-19T14:10:23;6.03;;;3.87;;
13331;SDS011;6735;51.456;12.626;2023-04-19T14:12:49;6.40;;;4.17;;
13331;SDS011;6735;51.456;12.626;2023-04-19T14:15:16;4.23;;;3.83;;
13331;SDS011;6735;51.456;12.626;2023-04-19T14:17:45;5.60;;;3.93;;
13331;SDS011;6735;51.456;12.626;2023-04-19T14:20:11;4.30;;;3.80;;
13331;SDS011;6735;51.456;12.626;2023-04-19T14:22:36;8.83;;;4.53;;
13331;SDS011;6735;51.456;12.626;2023-04-19T14:25:02;5.33;;;4.50;;
13331;SDS011;6735;51.456;12.626;2023-04-19T14:27:28;5.80;;;4.40;;
13331;SDS011;6735;51.456;12.626;2023-04-19T14:29:54;5.87;;;4.50;;
13331;SDS011;6735;51.456;12.626;2023-04-19T14:32:22;6.83;;;4.90;;
13331;SDS011;6735;51.456;12.626;2023-04-19T14:34:51;10.57;;;5.40;;
13331;SDS011;6735;51.456;12.626;2023-04-19T14:37:19;8.33;;;5.40;;
13331;SDS011;6735;51.456;12.626;2023-04-19T14:39:45;9.43;;;5.60;;
13331;SDS011;6735;51.456;12.626;2023-04-19T14:42:11;8.97;;;5.50;;
13331;SDS011;6735;51.456;12.626;2023-04-19T14:44:37;6.20;;;5.33;;
13331;SDS011;6735;51.456;12.626;2023-04-19T14:47:02;6.63;;;5.37;;
13331;SDS011;6735;51.456;12.626;2023-04-19T14:49:28;7.57;;;5.53;;